WBKS

Details ICAO WBKS (SDK)
Name Sandakan
Region Brunei and Malaysia
Timezone Asia/Kuching (UTC+8.0)
Plans Departing 17
Arriving 22
Stats Elevation 46 ft / 14 m (AMSL)
Location 5.900897° 118.059486°
Runways 1
Magnetic Variation 0.545° W
Sunrise 2018-05-25 21:53:29 UTC / 2018-05-26 05:53:29 Local
Sunset 2018-05-26 10:18:55 UTC / 2018-05-26 18:18:55 Local
Advertisement - Login to hide

Runways

ID Width Length Bearing (true) Bearing (mag) Surface Threshold Offset Overrun Length
08 151 ft / 46 m 7,010 ft / 2,137 m 80.56° 81.11° Asphalt 0 ft / 0 m 198 ft / 60 m
26 151 ft / 46 m 7,010 ft / 2,137 m 260.56° 261.11° Asphalt 0 ft / 0 m 198 ft / 60 m

Approach Navaids

Runway Type Ident Frequency Range Bearing (true) Bearing (mag) Slope Elevation
08 Localiser ISKN 109.30 MHz 18 nm / 33 km 80.48° 81.02° - 46 ft / 14 m (AMSL)
08 Glidescope ISKN 109.30 MHz 10 nm / 19 km 80.56° 81.11° 3.00° 46 ft / 14 m (AMSL)
08 DME ISKN 109.30 MHz 18 nm / 33 km - - - 46 ft / 14 m (AMSL)

Map

Weather


0- 5 10 15 20 25 30 35+ Temperature / ° C

Clouds and Precipitation
Forecast for 2018-05-26 00:00 UTC. Updated 3 hours ago

Ground ~20,000 ft ~40,000 ft Winds

METAR

WBKS 260200Z VRB03KT 9999 FEW017 BKN300 32/25 Q1008

TAF

TAF WBKS 251700Z 2518/2618 25005KT 9999 FEW013

Frequencies

Ground 121.90 MHz GND
Approach 123.20 MHz APP
Tower 121.05 MHz TWR
Warning: Do not use this data for real-world aviation or navigation. No guarantee of current accuracy is given.